sensor_id;sensor_type;location;lat;lon;timestamp;pressure;altitude;pressure_sealevel;temperature;humidity
56074;BME280;41950;55.840;37.442;2023-03-22T00:00:48;99078.03;;;5.01;84.44
56074;BME280;41950;55.840;37.442;2023-03-22T00:03:15;99088.25;;;5.11;84.28
56074;BME280;41950;55.840;37.442;2023-03-22T00:05:41;99087.41;;;5.08;84.82
56074;BME280;41950;55.840;37.442;2023-03-22T00:08:07;99088.31;;;5.02;85.06
56074;BME280;41950;55.840;37.442;2023-03-22T00:10:34;99084.91;;;4.92;85.53
56074;BME280;41950;55.840;37.442;2023-03-22T00:13:00;99083.19;;;4.99;85.51
56074;BME280;41950;55.840;37.442;2023-03-22T00:15:26;99087.47;;;5.00;85.48
56074;BME280;41950;55.840;37.442;2023-03-22T00:17:54;99053.25;;;4.83;85.35
56074;BME280;41950;55.840;37.442;2023-03-22T00:20:20;99066.06;;;4.89;85.46
56074;BME280;41950;55.840;37.442;2023-03-22T00:22:48;99090.03;;;5.03;85.83
56074;BME280;41950;55.840;37.442;2023-03-22T00:25:14;99072.06;;;4.89;85.50
56074;BME280;41950;55.840;37.442;2023-03-22T00:27:41;99071.22;;;4.84;85.92
56074;BME280;41950;55.840;37.442;2023-03-22T00:30:07;99061.88;;;4.70;86.52
56074;BME280;41950;55.840;37.442;2023-03-22T00:32:37;99090.94;;;4.85;86.67
56074;BME280;41950;55.840;37.442;2023-03-22T00:35:04;99078.09;;;4.82;86.57
56074;BME280;41950;55.840;37.442;2023-03-22T00:37:31;99084.94;;;4.85;86.42
56074;BME280;41950;55.840;37.442;2023-03-22T00:39:59;99099.50;;;4.93;86.10
56074;BME280;41950;55.840;37.442;2023-03-22T00:42:25;99087.53;;;4.79;86.06
56074;BME280;41950;55.840;37.442;2023-03-22T00:44:51;99096.91;;;4.89;86.14
56074;BME280;41950;55.840;37.442;2023-03-22T00:47:16;99105.47;;;4.97;85.88
56074;BME280;41950;55.840;37.442;2023-03-22T00:49:42;99103.78;;;4.96;85.37
56074;BME280;41950;55.840;37.442;2023-03-22T00:52:08;99110.59;;;5.02;85.52
56074;BME280;41950;55.840;37.442;2023-03-22T00:54:34;99110.59;;;5.00;85.09
56074;BME280;41950;55.840;37.442;2023-03-22T00:56:59;99090.06;;;4.88;84.88
56074;BME280;41950;55.840;37.442;2023-03-22T00:59:25;99108.03;;;4.99;84.79
56074;BME280;41950;55.840;37.442;2023-03-22T01:01:52;99098.63;;;4.88;84.64
56074;BME280;41950;55.840;37.442;2023-03-22T01:04:18;99117.44;;;5.03;84.80
56074;BME280;41950;55.840;37.442;2023-03-22T01:06:50;99102.91;;;4.88;84.91
56074;BME280;41950;55.840;37.442;2023-03-22T01:09:24;99125.19;;;4.98;84.82
56074;BME280;41950;55.840;37.442;2023-03-22T01:11:53;99126.91;;;5.01;84.72
56074;BME280;41950;55.840;37.442;2023-03-22T01:14:21;99134.56;;;5.08;84.44
56074;BME280;41950;55.840;37.442;2023-03-22T01:16:47;99100.31;;;5.00;84.49
56074;BME280;41950;55.840;37.442;2023-03-22T01:19:12;99104.56;;;5.06;84.50
56074;BME280;41950;55.840;37.442;2023-03-22T01:21:38;99131.06;;;5.20;84.05
56074;BME280;41950;55.840;37.442;2023-03-22T01:24:04;99109.75;;;5.03;83.74
56074;BME280;41950;55.840;37.442;2023-03-22T01:26:30;99129.44;;;5.08;83.61
56074;BME280;41950;55.840;37.442;2023-03-22T01:28:55;99098.63;;;4.87;83.83
56074;BME280;41950;55.840;37.442;2023-03-22T01:31:21;99148.28;;;5.09;83.72
56074;BME280;41950;55.840;37.442;2023-03-22T01:33:46;99138.03;;;5.04;83.68
56074;BME280;41950;55.840;37.442;2023-03-22T01:36:12;99133.78;;;4.97;83.37
56074;BME280;41950;55.840;37.442;2023-03-22T01:38:38;99136.31;;;5.05;83.08
56074;BME280;41950;55.840;37.442;2023-03-22T01:41:03;99150.84;;;5.12;83.25
56074;BME280;41950;55.840;37.442;2023-03-22T01:43:29;99126.91;;;4.99;82.72
56074;BME280;41950;55.840;37.442;2023-03-22T01:45:55;99154.25;;;5.14;82.47
56074;BME280;41950;55.840;37.442;2023-03-22T01:48:36;99158.56;;;5.13;82.84
56074;BME280;41950;55.840;37.442;2023-03-22T01:51:17;99144.03;;;5.03;82.80
56074;BME280;41950;55.840;37.442;2023-03-22T01:53:48;99168.81;;;5.19;82.70
56074;BME280;41950;55.840;37.442;2023-03-22T01:56:16;99148.28;;;5.10;82.28
56074;BME280;41950;55.840;37.442;2023-03-22T01:58:43;99167.13;;;5.12;82.51
56074;BME280;41950;55.840;37.442;2023-03-22T02:01:10;99171.41;;;5.12;82.73
56074;BME280;41950;55.840;37.442;2023-03-22T02:06:11;99169.72;;;5.06;82.41
56074;BME280;41950;55.840;37.442;2023-03-22T02:08:37;99165.44;;;5.05;82.68
56074;BME280;41950;55.840;37.442;2023-03-22T02:11:05;99160.31;;;4.93;82.67
56074;BME280;41950;55.840;37.442;2023-03-22T02:16:14;99189.50;;;4.93;83.02
56074;BME280;41950;55.840;37.442;2023-03-22T02:25:06;99206.56;;;5.11;82.60
56074;BME280;41950;55.840;37.442;2023-03-22T02:35:54;99209.16;;;5.08;82.33
56074;BME280;41950;55.840;37.442;2023-03-22T02:41:53;99215.19;;;5.03;82.46
56074;BME280;41950;55.840;37.442;2023-03-22T02:46:46;99227.16;;;5.10;82.49
56074;BME280;41950;55.840;37.442;2023-03-22T02:49:40;99238.28;;;5.15;82.03
56074;BME280;41950;55.840;37.442;2023-03-22T02:52:18;99215.19;;;4.98;82.07
56074;BME280;41950;55.840;37.442;2023-03-22T02:54:59;99235.75;;;5.01;82.19
56074;BME280;41950;55.840;37.442;2023-03-22T02:57:35;99209.22;;;4.81;82.34
56074;BME280;41950;55.840;37.442;2023-03-22T03:00:05;99200.66;;;4.76;82.21
56074;BME280;41950;55.840;37.442;2023-03-22T03:02:40;99209.22;;;4.82;82.62
56074;BME280;41950;55.840;37.442;2023-03-22T03:05:07;99237.47;;;4.93;82.67
56074;BME280;41950;55.840;37.442;2023-03-22T03:07:36;99241.78;;;4.83;82.96
56074;BME280;41950;55.840;37.442;2023-03-22T03:10:03;99249.50;;;4.85;83.04
56074;BME280;41950;55.840;37.442;2023-03-22T03:12:30;99243.50;;;4.86;82.86
56074;BME280;41950;55.840;37.442;2023-03-22T03:14:55;99228.06;;;4.80;82.67
56074;BME280;41950;55.840;37.442;2023-03-22T03:20:04;99231.50;;;4.86;82.62
56074;BME280;41950;55.840;37.442;2023-03-22T03:22:43;99255.47;;;4.90;82.39
56074;BME280;41950;55.840;37.442;2023-03-22T03:31:19;99246.09;;;4.57;83.15
56074;BME280;41950;55.840;37.442;2023-03-22T03:36:41;99265.78;;;4.52;82.79
56074;BME280;41950;55.840;37.442;2023-03-22T03:39:11;99280.34;;;4.56;82.63
56074;BME280;41950;55.840;37.442;2023-03-22T03:41:41;99262.38;;;4.41;82.48
56074;BME280;41950;55.840;37.442;2023-03-22T03:44:09;99263.19;;;4.30;82.59
56074;BME280;41950;55.840;37.442;2023-03-22T03:46:34;99293.19;;;4.50;82.52
56074;BME280;41950;55.840;37.442;2023-03-22T03:49:03;99296.63;;;4.53;82.13
56074;BME280;41950;55.840;37.442;2023-03-22T03:51:29;99297.47;;;4.49;81.86
56074;BME280;41950;55.840;37.442;2023-03-22T03:53:55;99300.91;;;4.42;82.12
56074;BME280;41950;55.840;37.442;2023-03-22T03:56:21;99297.44;;;4.35;82.11
56074;BME280;41950;55.840;37.442;2023-03-22T03:58:46;99310.28;;;4.35;82.42
56074;BME280;41950;55.840;37.442;2023-03-22T04:01:12;99305.16;;;4.26;82.50
56074;BME280;41950;55.840;37.442;2023-03-22T04:03:38;99299.16;;;4.24;82.68
56074;BME280;41950;55.840;37.442;2023-03-22T04:06:03;99322.28;;;4.32;82.29
56074;BME280;41950;55.840;37.442;2023-03-22T04:08:29;99321.41;;;4.28;82.13
56074;BME280;41950;55.840;37.442;2023-03-22T04:10:55;99309.41;;;4.14;81.92
56074;BME280;41950;55.840;37.442;2023-03-22T04:13:20;99292.25;;;3.97;81.99
56074;BME280;41950;55.840;37.442;2023-03-22T04:15:50;99319.63;;;4.04;81.54
56074;BME280;41950;55.840;37.442;2023-03-22T04:18:16;99321.34;;;3.96;81.25
56074;BME280;41950;55.840;37.442;2023-03-22T04:20:45;99321.31;;;3.90;80.82
56074;BME280;41950;55.840;37.442;2023-03-22T04:23:11;99330.72;;;3.90;80.76
56074;BME280;41950;55.840;37.442;2023-03-22T04:25:36;99322.13;;;3.79;80.75
56074;BME280;41950;55.840;37.442;2023-03-22T04:28:03;99345.28;;;3.86;80.90
56074;BME280;41950;55.840;37.442;2023-03-22T04:30:29;99353.81;;;3.87;80.70
56074;BME280;41950;55.840;37.442;2023-03-22T04:33:04;99332.38;;;3.77;80.85
56074;BME280;41950;55.840;37.442;2023-03-22T04:35:33;99338.38;;;3.79;80.53
56074;BME280;41950;55.840;37.442;2023-03-22T04:37:59;99354.69;;;3.92;80.38
56074;BME280;41950;55.840;37.442;2023-03-22T04:40:26;99347.84;;;3.86;80.04
56074;BME280;41950;55.840;37.442;2023-03-22T04:42:53;99354.69;;;3.89;79.97
56074;BME280;41950;55.840;37.442;2023-03-22T04:45:22;99360.69;;;3.95;79.69
56074;BME280;41950;55.840;37.442;2023-03-22T04:47:48;99359.84;;;3.90;79.52
56074;BME280;41950;55.840;37.442;2023-03-22T04:50:14;99359.84;;;3.96;79.02
56074;BME280;41950;55.840;37.442;2023-03-22T04:52:40;99342.69;;;3.85;78.93
56074;BME280;41950;55.840;37.442;2023-03-22T04:55:06;99381.28;;;4.11;78.45
56074;BME280;41950;55.840;37.442;2023-03-22T04:57:32;99364.16;;;4.07;78.24
56074;BME280;41950;55.840;37.442;2023-03-22T04:59:59;99371.91;;;4.14;78.10
56074;BME280;41950;55.840;37.442;2023-03-22T05:02:25;99377.91;;;4.18;77.85
56074;BME280;41950;55.840;37.442;2023-03-22T05:04:50;99383.91;;;4.17;77.49
56074;BME280;41950;55.840;37.442;2023-03-22T05:07:16;99383.00;;;4.07;77.62
56074;BME280;41950;55.840;37.442;2023-03-22T05:09:42;99393.25;;;4.06;77.55
56074;BME280;41950;55.840;37.442;2023-03-22T05:12:10;99402.66;;;4.03;77.74
56074;BME280;41950;55.840;37.442;2023-03-22T05:14:36;99365.81;;;3.92;77.33
56074;BME280;41950;55.840;37.442;2023-03-22T05:17:01;99372.69;;;3.96;76.67
56074;BME280;41950;55.840;37.442;2023-03-22T05:19:28;99384.69;;;4.03;76.66
56074;BME280;41950;55.840;37.442;2023-03-22T05:21:53;99378.66;;;3.92;75.97
56074;BME280;41950;55.840;37.442;2023-03-22T05:24:22;99407.78;;;3.97;75.85
56074;BME280;41950;55.840;37.442;2023-03-22T05:26:48;99421.44;;;3.87;75.87
56074;BME280;41950;55.840;37.442;2023-03-22T05:29:18;99426.44;;;3.70;75.83
56074;BME280;41950;55.840;37.442;2023-03-22T05:31:49;99425.53;;;3.56;76.02
56074;BME280;41950;55.840;37.442;2023-03-22T05:34:14;99423.84;;;3.60;75.60
56074;BME280;41950;55.840;37.442;2023-03-22T05:36:40;99446.09;;;3.64;75.43
56074;BME280;41950;55.840;37.442;2023-03-22T05:39:05;99435.75;;;3.55;75.43
56074;BME280;41950;55.840;37.442;2023-03-22T05:41:32;99452.91;;;3.60;74.58
56074;BME280;41950;55.840;37.442;2023-03-22T05:43:58;99463.13;;;3.56;74.52
56074;BME280;41950;55.840;37.442;2023-03-22T05:46:24;99460.56;;;3.56;74.61
56074;BME280;41950;55.840;37.442;2023-03-22T05:48:55;99447.69;;;3.51;73.92
56074;BME280;41950;55.840;37.442;2023-03-22T05:51:20;99449.41;;;3.52;73.91
56074;BME280;41950;55.840;37.442;2023-03-22T05:53:50;99452.81;;;3.50;73.71
56074;BME280;41950;55.840;37.442;2023-03-22T05:56:17;99460.59;;;3.57;73.57
56074;BME280;41950;55.840;37.442;2023-03-22T05:58:46;99475.13;;;3.57;73.45
56074;BME280;41950;55.840;37.442;2023-03-22T06:01:15;99455.47;;;3.60;73.46
56074;BME280;41950;55.840;37.442;2023-03-22T06:03:44;99444.41;;;3.69;72.45
56074;BME280;41950;55.840;37.442;2023-03-22T06:06:10;99453.16;;;4.01;71.64
56074;BME280;41950;55.840;37.442;2023-03-22T06:08:41;99440.31;;;4.03;71.19
56074;BME280;41950;55.840;37.442;2023-03-22T06:11:07;99454.91;;;4.10;70.85
56074;BME280;41950;55.840;37.442;2023-03-22T06:13:36;99454.09;;;4.11;70.45
56074;BME280;41950;55.840;37.442;2023-03-22T06:16:02;99472.16;;;4.37;70.58
56074;BME280;41950;55.840;37.442;2023-03-22T06:18:29;99459.34;;;4.42;69.52
56074;BME280;41950;55.840;37.442;2023-03-22T06:20:55;99467.06;;;4.45;68.56
56074;BME280;41950;55.840;37.442;2023-03-22T06:23:48;99473.06;;;4.42;68.39
56074;BME280;41950;55.840;37.442;2023-03-22T06:26:53;99467.94;;;4.44;68.69
56074;BME280;41950;55.840;37.442;2023-03-22T06:30:21;99450.84;;;4.61;68.34
56074;BME280;41950;55.840;37.442;2023-03-22T06:32:47;99467.16;;;4.71;68.13
56074;BME280;41950;55.840;37.442;2023-03-22T06:35:12;99471.44;;;4.70;68.01
56074;BME280;41950;55.840;37.442;2023-03-22T06:37:42;99438.81;;;4.46;67.58
56074;BME280;41950;55.840;37.442;2023-03-22T06:40:08;99475.72;;;4.67;67.21
56074;BME280;41950;55.840;37.442;2023-03-22T06:42:34;99455.97;;;4.52;67.53
56074;BME280;41950;55.840;37.442;2023-03-22T06:45:01;99449.84;;;4.19;67.48
56074;BME280;41950;55.840;37.442;2023-03-22T06:47:28;99491.84;;;4.33;68.19
56074;BME280;41950;55.840;37.442;2023-03-22T06:49:54;99467.00;;;4.32;68.23
56074;BME280;41950;55.840;37.442;2023-03-22T06:52:20;99475.66;;;4.54;67.82
56074;BME280;41950;55.840;37.442;2023-03-22T06:54:46;99466.25;;;4.56;67.87
56074;BME280;41950;55.840;37.442;2023-03-22T06:57:11;99468.03;;;4.76;67.30
56074;BME280;41950;55.840;37.442;2023-03-22T06:59:38;99474.91;;;4.83;66.96
56074;BME280;41950;55.840;37.442;2023-03-22T07:02:05;99474.88;;;4.80;66.27
56074;BME280;41950;55.840;37.442;2023-03-22T07:04:30;99467.97;;;4.60;66.53
56074;BME280;41950;55.840;37.442;2023-03-22T07:06:57;99468.81;;;4.56;66.21
56074;BME280;41950;55.840;37.442;2023-03-22T07:09:23;99467.06;;;4.45;66.16
56074;BME280;41950;55.840;37.442;2023-03-22T07:11:49;99459.38;;;4.45;66.59
56074;BME280;41950;55.840;37.442;2023-03-22T07:14:14;99462.03;;;4.92;65.96
56074;BME280;41950;55.840;37.442;2023-03-22T07:16:40;99472.41;;;5.30;64.76
56074;BME280;41950;55.840;37.442;2023-03-22T07:19:06;99477.53;;;5.47;63.46
56074;BME280;41950;55.840;37.442;2023-03-22T07:21:32;99475.00;;;5.48;62.48
56074;BME280;41950;55.840;37.442;2023-03-22T07:23:57;99484.44;;;5.51;63.18
56074;BME280;41950;55.840;37.442;2023-03-22T07:26:23;99493.00;;;5.57;62.43
56074;BME280;41950;55.840;37.442;2023-03-22T07:28:51;99499.00;;;5.50;62.51
56074;BME280;41950;55.840;37.442;2023-03-22T07:31:16;99495.56;;;5.39;62.43
56074;BME280;41950;55.840;37.442;2023-03-22T07:33:42;99475.84;;;5.29;62.59
56074;BME280;41950;55.840;37.442;2023-03-22T07:36:09;99500.72;;;5.61;62.31
56074;BME280;41950;55.840;37.442;2023-03-22T07:38:35;99463.84;;;5.48;61.84
56074;BME280;41950;55.840;37.442;2023-03-22T07:41:01;99490.41;;;5.67;61.19
56074;BME280;41950;55.840;37.442;2023-03-22T07:43:27;99483.53;;;5.70;61.30
56074;BME280;41950;55.840;37.442;2023-03-22T07:45:53;99481.84;;;5.78;61.29
56074;BME280;41950;55.840;37.442;2023-03-22T07:48:20;99504.13;;;6.17;60.84
56074;BME280;41950;55.840;37.442;2023-03-22T07:50:46;99481.75;;;6.23;60.21
56074;BME280;41950;55.840;37.442;2023-03-22T07:53:12;99504.03;;;6.42;59.95
56074;BME280;41950;55.840;37.442;2023-03-22T07:55:38;99494.63;;;6.36;59.74
56074;BME280;41950;55.840;37.442;2023-03-22T07:58:06;99404.56;;;5.91;59.46
56074;BME280;41950;55.840;37.442;2023-03-22T08:00:32;99512.59;;;6.51;59.23
56074;BME280;41950;55.840;37.442;2023-03-22T08:02:58;99506.53;;;6.66;59.40
56074;BME280;41950;55.840;37.442;2023-03-22T08:05:24;99491.97;;;6.51;59.37
56074;BME280;41950;55.840;37.442;2023-03-22T08:07:50;99506.66;;;6.28;58.95
56074;BME280;41950;55.840;37.442;2023-03-22T08:10:16;99492.94;;;6.20;59.88
56074;BME280;41950;55.840;37.442;2023-03-22T08:12:42;99516.97;;;6.31;59.37
56074;BME280;41950;55.840;37.442;2023-03-22T08:15:09;99508.38;;;6.22;59.65
56074;BME280;41950;55.840;37.442;2023-03-22T08:17:35;99496.31;;;6.43;59.49
56074;BME280;41950;55.840;37.442;2023-03-22T08:20:01;99512.53;;;6.70;59.06
56074;BME280;41950;55.840;37.442;2023-03-22T08:22:31;99484.22;;;6.56;58.29
56074;BME280;41950;55.840;37.442;2023-03-22T08:24:56;99506.47;;;6.77;58.38
56074;BME280;41950;55.840;37.442;2023-03-22T08:27:22;99486.78;;;6.65;57.70
56074;BME280;41950;55.840;37.442;2023-03-22T08:29:48;99489.25;;;6.85;58.13
56074;BME280;41950;55.840;37.442;2023-03-22T08:32:14;99512.28;;;7.19;56.81
56074;BME280;41950;55.840;37.442;2023-03-22T08:34:41;99497.78;;;6.96;56.66
56074;BME280;41950;55.840;37.442;2023-03-22T08:37:09;99491.94;;;6.65;57.43
56074;BME280;41950;55.840;37.442;2023-03-22T08:39:36;99522.84;;;6.73;57.57
56074;BME280;41950;55.840;37.442;2023-03-22T08:42:02;99521.13;;;6.72;57.63
56074;BME280;41950;55.840;37.442;2023-03-22T08:44:28;99497.16;;;6.45;57.82
56074;BME280;41950;55.840;37.442;2023-03-22T08:46:54;99514.34;;;6.45;58.32
56074;BME280;41950;55.840;37.442;2023-03-22T08:49:20;99515.19;;;6.48;58.01
56074;BME280;41950;55.840;37.442;2023-03-22T08:51:46;99506.63;;;6.43;58.62
56074;BME280;41950;55.840;37.442;2023-03-22T08:54:12;99492.03;;;6.41;58.49
56074;BME280;41950;55.840;37.442;2023-03-22T08:56:38;99515.06;;;6.76;58.12
56074;BME280;41950;55.840;37.442;2023-03-22T08:59:05;99506.41;;;6.94;57.67
56074;BME280;41950;55.840;37.442;2023-03-22T09:01:31;99514.81;;;7.25;57.24
56074;BME280;41950;55.840;37.442;2023-03-22T09:03:57;99518.13;;;7.43;56.32
56074;BME280;41950;55.840;37.442;2023-03-22T09:06:23;99492.38;;;7.31;55.46
56074;BME280;41950;55.840;37.442;2023-03-22T09:11:42;99515.34;;;7.66;55.36
56074;BME280;41950;55.840;37.442;2023-03-22T09:14:09;99488.75;;;7.57;54.56
56074;BME280;41950;55.840;37.442;2023-03-22T09:16:35;99500.72;;;7.65;54.70
56074;BME280;41950;55.840;37.442;2023-03-22T09:19:01;99513.66;;;7.64;54.74
56074;BME280;41950;55.840;37.442;2023-03-22T09:21:28;99524.94;;;7.52;55.47
56074;BME280;41950;55.840;37.442;2023-03-22T09:23:56;99518.94;;;7.49;55.52
56074;BME280;41950;55.840;37.442;2023-03-22T09:26:22;99526.75;;;7.44;55.38
56074;BME280;41950;55.840;37.442;2023-03-22T09:28:48;99519.94;;;7.29;55.57
56074;BME280;41950;55.840;37.442;2023-03-22T09:31:14;99524.31;;;7.18;56.27
56074;BME280;41950;55.840;37.442;2023-03-22T09:33:40;99522.66;;;7.05;56.16
56074;BME280;41950;55.840;37.442;2023-03-22T09:36:07;99529.63;;;6.94;56.52
56074;BME280;41950;55.840;37.442;2023-03-22T09:38:33;99521.06;;;6.82;56.71
56074;BME280;41950;55.840;37.442;2023-03-22T09:41:13;99537.47;;;6.69;57.13
56074;BME280;41950;55.840;37.442;2023-03-22T09:43:45;99537.50;;;6.56;57.75
56074;BME280;41950;55.840;37.442;2023-03-22T09:46:16;99517.81;;;6.36;57.93
56074;BME280;41950;55.840;37.442;2023-03-22T09:48:45;99531.56;;;6.25;58.70
56074;BME280;41950;55.840;37.442;2023-03-22T09:51:36;99530.78;;;6.06;59.09
56074;BME280;41950;55.840;37.442;2023-03-22T09:54:52;99526.44;;;6.17;58.65
56074;BME280;41950;55.840;37.442;2023-03-22T09:56:58;99498.97;;;6.11;58.63
56074;BME280;41950;55.840;37.442;2023-03-22T10:02:03;99512.47;;;6.88;56.76
56074;BME280;41950;55.840;37.442;2023-03-22T10:04:55;99501.09;;;7.20;55.81
56074;BME280;41950;55.840;37.442;2023-03-22T10:10:18;99523.94;;;7.71;54.52
56074;BME280;41950;55.840;37.442;2023-03-22T10:15:37;99531.22;;;8.20;53.44
56074;BME280;41950;55.840;37.442;2023-03-22T10:21:01;99521.56;;;8.42;52.23
56074;BME280;41950;55.840;37.442;2023-03-22T10:26:06;99498.81;;;8.70;51.24
56074;BME280;41950;55.840;37.442;2023-03-22T10:30:58;99514.56;;;9.18;50.19
56074;BME280;41950;55.840;37.442;2023-03-22T10:33:34;99523.25;;;9.14;49.70
56074;BME280;41950;55.840;37.442;2023-03-22T10:36:03;99523.88;;;8.65;51.14
56074;BME280;41950;55.840;37.442;2023-03-22T10:38:31;99524.22;;;8.36;51.37
56074;BME280;41950;55.840;37.442;2023-03-22T10:40:59;99511.31;;;8.31;51.77
56074;BME280;41950;55.840;37.442;2023-03-22T10:45:56;99516.06;;;8.70;51.70
56074;BME280;41950;55.840;37.442;2023-03-22T10:48:38;99517.72;;;8.74;51.50
56074;BME280;41950;55.840;37.442;2023-03-22T10:51:08;99491.91;;;8.71;51.52
56074;BME280;41950;55.840;37.442;2023-03-22T10:56:02;99482.13;;;8.92;50.88
56074;BME280;41950;55.840;37.442;2023-03-22T10:58:30;99513.69;;;9.17;50.76
56074;BME280;41950;55.840;37.442;2023-03-22T11:00:59;99513.00;;;9.08;50.76
56074;BME280;41950;55.840;37.442;2023-03-22T11:03:39;99513.00;;;9.06;50.55
56074;BME280;41950;55.840;37.442;2023-03-22T11:14:14;99523.25;;;8.45;52.23
56074;BME280;41950;55.840;37.442;2023-03-22T11:17:08;99536.97;;;8.53;52.66
56074;BME280;41950;55.840;37.442;2023-03-22T11:19:37;99518.81;;;8.56;52.81
56074;BME280;41950;55.840;37.442;2023-03-22T11:22:20;99522.97;;;8.67;52.57
56074;BME280;41950;55.840;37.442;2023-03-22T11:24:49;99517.78;;;8.71;52.50
56074;BME280;41950;55.840;37.442;2023-03-22T11:27:19;99524.13;;;8.44;53.39
56074;BME280;41950;55.840;37.442;2023-03-22T11:29:51;99518.22;;;8.31;54.14
56074;BME280;41950;55.840;37.442;2023-03-22T11:34:46;99526.66;;;8.48;54.03
56074;BME280;41950;55.840;37.442;2023-03-22T11:37:16;99530.34;;;8.26;54.82
56074;BME280;41950;55.840;37.442;2023-03-22T11:39:46;99500.47;;;7.93;55.67
56074;BME280;41950;55.840;37.442;2023-03-22T11:42:18;99524.47;;;8.07;56.12
56074;BME280;41950;55.840;37.442;2023-03-22T11:44:45;99469.25;;;8.16;55.48
56074;BME280;41950;55.840;37.442;2023-03-22T11:47:12;99473.97;;;8.57;55.23
56074;BME280;41950;55.840;37.442;2023-03-22T11:49:43;99485.38;;;9.07;53.62
56074;BME280;41950;55.840;37.442;2023-03-22T11:52:30;99501.44;;;9.32;52.39
56074;BME280;41950;55.840;37.442;2023-03-22T11:54:58;99503.66;;;9.53;51.32
56074;BME280;41950;55.840;37.442;2023-03-22T11:57:26;99476.81;;;9.60;51.07
56074;BME280;41950;55.840;37.442;2023-03-22T11:59:58;99471.47;;;9.68;50.67
56074;BME280;41950;55.840;37.442;2023-03-22T12:02:49;99501.44;;;9.82;50.32
56074;BME280;41950;55.840;37.442;2023-03-22T12:05:24;99497.84;;;9.40;50.29
56074;BME280;41950;55.840;37.442;2023-03-22T12:10:51;99500.41;;;8.80;51.84
56074;BME280;41950;55.840;37.442;2023-03-22T12:13:22;99495.63;;;8.48;52.50
56074;BME280;41950;55.840;37.442;2023-03-22T12:15:57;99489.06;;;8.14;53.49
56074;BME280;41950;55.840;37.442;2023-03-22T12:18:47;99506.38;;;8.09;54.23
56074;BME280;41950;55.840;37.442;2023-03-22T12:21:16;99450.81;;;7.62;55.19
56074;BME280;41950;55.840;37.442;2023-03-22T12:23:42;99518.75;;;7.74;56.24
56074;BME280;41950;55.840;37.442;2023-03-22T12:26:17;99482.72;;;7.58;56.91
56074;BME280;41950;55.840;37.442;2023-03-22T12:29:06;99500.56;;;7.85;57.30
56074;BME280;41950;55.840;37.442;2023-03-22T12:31:41;99508.84;;;8.19;56.86
56074;BME280;41950;55.840;37.442;2023-03-22T12:34:14;99481.13;;;8.35;55.99
56074;BME280;41950;55.840;37.442;2023-03-22T12:36:46;99472.53;;;8.31;55.78
56074;BME280;41950;55.840;37.442;2023-03-22T12:39:26;99473.34;;;8.38;55.50
56074;BME280;41950;55.840;37.442;2023-03-22T12:42:00;99476.84;;;8.29;55.40
56074;BME280;41950;55.840;37.442;2023-03-22T12:44:32;99474.31;;;8.26;55.53
56074;BME280;41950;55.840;37.442;2023-03-22T12:47:05;99486.13;;;8.49;54.71
56074;BME280;41950;55.840;37.442;2023-03-22T12:55:36;99476.81;;;9.02;52.02
56074;BME280;41950;55.840;37.442;2023-03-22T12:58:07;99466.03;;;8.71;51.97
56074;BME280;41950;55.840;37.442;2023-03-22T13:00:42;99469.28;;;8.85;52.22
56074;BME280;41950;55.840;37.442;2023-03-22T13:05:44;99472.09;;;8.68;52.44
56074;BME280;41950;55.840;37.442;2023-03-22T13:08:11;99493.16;;;8.38;53.20
56074;BME280;41950;55.840;37.442;2023-03-22T13:11:15;99483.94;;;8.12;54.16
56074;BME280;41950;55.840;37.442;2023-03-22T13:13:42;99484.94;;;7.99;54.92
56074;BME280;41950;55.840;37.442;2023-03-22T13:26:38;99488.75;;;7.57;57.45
56074;BME280;41950;55.840;37.442;2023-03-22T13:29:16;99489.50;;;7.71;57.14
56074;BME280;41950;55.840;37.442;2023-03-22T13:31:46;99491.09;;;7.84;56.70
56074;BME280;41950;55.840;37.442;2023-03-22T13:34:42;99484.19;;;7.86;56.54
56074;BME280;41950;55.840;37.442;2023-03-22T13:37:21;99457.84;;;7.49;57.02
56074;BME280;41950;55.840;37.442;2023-03-22T13:39:54;99481.88;;;7.57;57.42
56074;BME280;41950;55.840;37.442;2023-03-22T13:42:25;99474.97;;;7.56;57.42
56074;BME280;41950;55.840;37.442;2023-03-22T13:44:55;99489.50;;;7.71;57.23
56074;BME280;41950;55.840;37.442;2023-03-22T13:47:34;99465.34;;;7.75;56.55
56074;BME280;41950;55.840;37.442;2023-03-22T13:50:17;99479.88;;;7.87;56.28
56074;BME280;41950;55.840;37.442;2023-03-22T13:53:14;99464.56;;;7.70;55.95
56074;BME280;41950;55.840;37.442;2023-03-22T14:00:59;99435.44;;;7.51;55.29
56074;BME280;41950;55.840;37.442;2023-03-22T14:03:31;99455.06;;;7.72;54.60
56074;BME280;41950;55.840;37.442;2023-03-22T14:06:08;99461.75;;;7.90;53.74
56074;BME280;41950;55.840;37.442;2023-03-22T14:08:35;99453.94;;;7.97;53.29
56074;BME280;41950;55.840;37.442;2023-03-22T14:13:52;99450.69;;;7.79;53.07
56074;BME280;41950;55.840;37.442;2023-03-22T14:18:56;99445.72;;;7.57;52.97
56074;BME280;41950;55.840;37.442;2023-03-22T14:21:30;99462.06;;;7.58;52.63
56074;BME280;41950;55.840;37.442;2023-03-22T14:23:59;99425.34;;;7.24;53.32
56074;BME280;41950;55.840;37.442;2023-03-22T14:26:34;99459.66;;;7.35;53.62
56074;BME280;41950;55.840;37.442;2023-03-22T14:29:09;99436.53;;;7.21;54.04
56074;BME280;41950;55.840;37.442;2023-03-22T14:31:38;99451.06;;;7.33;54.51
56074;BME280;41950;55.840;37.442;2023-03-22T14:34:11;99454.50;;;7.35;54.20
56074;BME280;41950;55.840;37.442;2023-03-22T14:36:40;99450.19;;;7.34;54.82
56074;BME280;41950;55.840;37.442;2023-03-22T14:39:14;99451.97;;;7.30;54.64
56074;BME280;41950;55.840;37.442;2023-03-22T14:42:01;99453.66;;;7.31;54.82
56074;BME280;41950;55.840;37.442;2023-03-22T14:44:35;99432.31;;;7.12;54.97
56074;BME280;41950;55.840;37.442;2023-03-22T14:47:26;99441.81;;;7.06;55.14
56074;BME280;41950;55.840;37.442;2023-03-22T14:49:55;99402.41;;;6.87;55.49
56074;BME280;41950;55.840;37.442;2023-03-22T14:52:25;99421.19;;;7.03;55.49
56074;BME280;41950;55.840;37.442;2023-03-22T14:55:00;99441.75;;;7.12;55.24
56074;BME280;41950;55.840;37.442;2023-03-22T14:57:31;99449.50;;;7.10;55.86